Doles, Idaho
Current Conditions -  °F | °C
As of 5:15 AM on Friday 19 Dec 2014 (Local Time) from KEUL Reporting Station
Overcast Overcast  
Wind Chill: 32°   Ceiling: 6500
Heat Index: 39°   Visibility: 10mi
Dew Point: 28°   Wind: 10mph
Humidity: 65%   Direction: 100°E
Pressure: 30.06"   Gusts: NA
Location:  43.676°N, 116.752°W
Report Text: KEUL 191215Z AUTO 10009KT 10SM FEW055 BKN065 OVC080 04/M02 A3006 RMK AO1
Loading
Personal Weather Stations






























Interactive Weather Map New forecast layout! Learn more

10-Day Weather Forecast

Advertisements
Track Severe Weather on mobile